메인 페이지
METAR-TAF:

METAR-TAF

공항 :

Mosjøen, 노르웨이

위도: 65-48N, 경도: 013-08E, 고도: 70m

현재 날씨관측

예보는 58분 전, 20:20시(UTC)에 발표되었습니다.
여러 방향의 바람 2kt
온도 8°C
습도 93%
기압 1006 hPa
시정 10km 이상
고도 3600ft 상공 구름 많음
약한비

METAR: ENMS 192020Z VRB02KT 9999 -RA BKN036 08/07 Q1006 RMK WIND 412FT VRB02KT

시각: 23:18 (21:18 UTC)

예보

예보는 7 시간 18분 전, 14:00시(UTC)에 발표되었습니다.
예보 대상 시간: 19일 15시부터 19일 21시까지 (UTC)
여러 방향의 바람 5kt
시정 10km 이상
고도 1500ft 상공 구름 조금
고도 3000ft 상공 구름 많음
일시적
19일 15시부터 19일 16시까지 (UTC)
북서10kt

TAF: ENMS 191400Z 1915/1921 VRB05KT 9999 FEW015 BKN030 TEMPO 1915/1916 31010KT

4,000개 이상의 공항 관측 자료 및 예보 (METAR 및 TAF 보고).

지도상에서 검색 가능한 기상관측소가 노란 점과 빨간 점으로 표시되어 있습니다.

기상관측소 명을 보려면 표시 위로 마우스를 이동하세요.

날씨 관측과 예보를 보려면 클릭하세요.

지도 변경 : 확대하려면 엑스 표시가 있는 녹색 버튼, 축소하려면 빼기 표시가 있는 녹색 버튼, 다음 페이지의 지도를 보려면 녹색 화살표를 클릭하세요.


METAR-TAF: